sensor_id;sensor_type;location;lat;lon;timestamp;pressure;altitude;pressure_sealevel;temperature;humidity
6194;BME280;3130;41.564;23.280;2023-07-31T00:00:43;98148.88;;;25.98;65.41
6194;BME280;3130;41.564;23.280;2023-07-31T00:03:12;98204.09;;;25.85;67.53
6194;BME280;3130;41.564;23.280;2023-07-31T00:05:39;98227.13;;;25.89;69.20
6194;BME280;3130;41.564;23.280;2023-07-31T00:08:06;98130.38;;;25.28;69.61
6194;BME280;3130;41.564;23.280;2023-07-31T00:10:33;98186.13;;;25.24;70.68
6194;BME280;3130;41.564;23.280;2023-07-31T00:13:00;98223.25;;;25.14;72.36
6194;BME280;3130;41.564;23.280;2023-07-31T00:15:29;98184.47;;;25.10;71.67
6194;BME280;3130;41.564;23.280;2023-07-31T00:17:56;98078.34;;;24.27;73.62
6194;BME280;3130;41.564;23.280;2023-07-31T00:20:24;98156.06;;;24.47;76.55
6194;BME280;3130;41.564;23.280;2023-07-31T00:22:51;98230.91;;;25.16;76.32
6194;BME280;3130;41.564;23.280;2023-07-31T00:25:18;98240.59;;;25.09;77.15
6194;BME280;3130;41.564;23.280;2023-07-31T00:27:45;98232.22;;;24.73;79.06
6194;BME280;3130;41.564;23.280;2023-07-31T00:30:12;98234.88;;;24.46;80.46
6194;BME280;3130;41.564;23.280;2023-07-31T00:32:41;98214.41;;;24.22;82.71
6194;BME280;3130;41.564;23.280;2023-07-31T00:35:08;98107.44;;;23.30;84.52
6194;BME280;3130;41.564;23.280;2023-07-31T00:37:35;98221.66;;;23.65;87.23
6194;BME280;3130;41.564;23.280;2023-07-31T00:40:02;98213.97;;;23.57;89.26
6194;BME280;3130;41.564;23.280;2023-07-31T00:42:30;98216.47;;;23.44;90.66
6194;BME280;3130;41.564;23.280;2023-07-31T00:44:57;98186.75;;;23.31;91.10
6194;BME280;3130;41.564;23.280;2023-07-31T00:47:24;98112.78;;;22.74;91.94
6194;BME280;3130;41.564;23.280;2023-07-31T00:49:54;98170.34;;;23.16;92.35
6194;BME280;3130;41.564;23.280;2023-07-31T00:52:21;98192.63;;;23.33;93.42
6194;BME280;3130;41.564;23.280;2023-07-31T00:54:49;98192.94;;;23.23;94.40
6194;BME280;3130;41.564;23.280;2023-07-31T00:57:16;98050.81;;;22.33;95.11
6194;BME280;3130;41.564;23.280;2023-07-31T00:59:43;98113.13;;;22.50;97.10
6194;BME280;3130;41.564;23.280;2023-07-31T01:02:12;98198.09;;;22.96;98.85
6194;BME280;3130;41.564;23.280;2023-07-31T01:04:41;98198.84;;;22.75;100.00
6194;BME280;3130;41.564;23.280;2023-07-31T01:07:15;98086.28;;;22.06;100.00
6194;BME280;3130;41.564;23.280;2023-07-31T01:09:52;98017.78;;;21.69;100.00
6194;BME280;3130;41.564;23.280;2023-07-31T01:12:23;98185.00;;;22.75;100.00
6194;BME280;3130;41.564;23.280;2023-07-31T01:14:51;98185.47;;;22.64;100.00
6194;BME280;3130;41.564;23.280;2023-07-31T01:17:19;98103.16;;;22.04;100.00
6194;BME280;3130;41.564;23.280;2023-07-31T01:19:47;98078.13;;;21.95;100.00
6194;BME280;3130;41.564;23.280;2023-07-31T01:22:39;98021.53;;;21.52;100.00
6194;BME280;3130;41.564;23.280;2023-07-31T01:25:19;98101.53;;;21.88;100.00
6194;BME280;3130;41.564;23.280;2023-07-31T01:27:55;98126.72;;;22.10;100.00
6194;BME280;3130;41.564;23.280;2023-07-31T01:30:27;98163.53;;;22.44;100.00
6194;BME280;3130;41.564;23.280;2023-07-31T01:32:59;98166.97;;;22.65;100.00
6194;BME280;3130;41.564;23.280;2023-07-31T01:35:32;98118.00;;;22.53;93.84
6194;BME280;3130;41.564;23.280;2023-07-31T01:37:59;98164.06;;;23.10;90.76
6194;BME280;3130;41.564;23.280;2023-07-31T01:40:27;98187.53;;;23.52;88.58
6194;BME280;3130;41.564;23.280;2023-07-31T01:42:56;98126.19;;;23.34;83.96
6194;BME280;3130;41.564;23.280;2023-07-31T01:45:23;98175.34;;;23.93;81.63
6194;BME280;3130;41.564;23.280;2023-07-31T01:47:50;98123.31;;;23.83;79.10
6194;BME280;3130;41.564;23.280;2023-07-31T01:50:17;98177.75;;;24.35;76.87
6194;BME280;3130;41.564;23.280;2023-07-31T01:52:44;98162.09;;;24.41;75.47
6194;BME280;3130;41.564;23.280;2023-07-31T01:55:12;98018.44;;;23.64;74.07
6194;BME280;3130;41.564;23.280;2023-07-31T01:57:40;98108.00;;;24.34;73.85
6194;BME280;3130;41.564;23.280;2023-07-31T02:00:09;98136.94;;;24.59;73.43
6194;BME280;3130;41.564;23.280;2023-07-31T02:02:37;98136.53;;;24.50;73.37
6194;BME280;3130;41.564;23.280;2023-07-31T02:05:05;98022.09;;;23.63;74.48
6194;BME280;3130;41.564;23.280;2023-07-31T02:07:32;98179.00;;;24.45;75.51
6194;BME280;3130;41.564;23.280;2023-07-31T02:09:59;98089.91;;;23.58;77.99
6194;BME280;3130;41.564;23.280;2023-07-31T02:12:26;98152.97;;;23.90;79.65
6194;BME280;3130;41.564;23.280;2023-07-31T02:14:56;98180.22;;;23.96;80.61
6194;BME280;3130;41.564;23.280;2023-07-31T02:17:25;98124.41;;;23.68;81.13
6194;BME280;3130;41.564;23.280;2023-07-31T02:19:52;98189.53;;;24.05;81.74
6194;BME280;3130;41.564;23.280;2023-07-31T02:22:19;98171.03;;;23.79;82.90
6194;BME280;3130;41.564;23.280;2023-07-31T02:24:47;98026.91;;;22.77;83.65
6194;BME280;3130;41.564;23.280;2023-07-31T02:27:14;98182.53;;;23.78;84.19
6194;BME280;3130;41.564;23.280;2023-07-31T02:29:41;98031.09;;;22.72;85.15
6194;BME280;3130;41.564;23.280;2023-07-31T02:32:08;98018.38;;;22.41;87.25
6194;BME280;3130;41.564;23.280;2023-07-31T02:34:37;98159.88;;;23.16;88.13
6194;BME280;3130;41.564;23.280;2023-07-31T02:37:04;98095.84;;;22.70;88.27
6194;BME280;3130;41.564;23.280;2023-07-31T02:39:32;98198.22;;;23.09;89.53
6194;BME280;3130;41.564;23.280;2023-07-31T02:41:59;98140.06;;;22.65;89.95
6194;BME280;3130;41.564;23.280;2023-07-31T02:44:27;98180.66;;;22.82;91.06
6194;BME280;3130;41.564;23.280;2023-07-31T02:46:54;98188.19;;;22.91;91.31
6194;BME280;3130;41.564;23.280;2023-07-31T02:49:21;98078.25;;;22.08;92.02
6194;BME280;3130;41.564;23.280;2023-07-31T02:51:49;98187.81;;;22.73;92.39
6194;BME280;3130;41.564;23.280;2023-07-31T02:54:17;98127.59;;;22.46;92.36
6194;BME280;3130;41.564;23.280;2023-07-31T02:56:46;98181.97;;;22.92;91.72
6194;BME280;3130;41.564;23.280;2023-07-31T02:59:13;98180.13;;;22.93;91.38
6194;BME280;3130;41.564;23.280;2023-07-31T03:01:40;98180.66;;;22.82;92.04
6194;BME280;3130;41.564;23.280;2023-07-31T03:04:07;98120.03;;;22.37;92.46
6194;BME280;3130;41.564;23.280;2023-07-31T03:06:35;98118.22;;;22.37;92.38
6194;BME280;3130;41.564;23.280;2023-07-31T03:09:03;98129.03;;;22.34;93.06
6194;BME280;3130;41.564;23.280;2023-07-31T03:11:31;98208.25;;;22.70;93.54
6194;BME280;3130;41.564;23.280;2023-07-31T03:13:58;98174.69;;;22.52;92.84
6194;BME280;3130;41.564;23.280;2023-07-31T03:16:25;98117.81;;;22.05;92.48
6194;BME280;3130;41.564;23.280;2023-07-31T03:18:54;98230.16;;;22.69;92.23
6194;BME280;3130;41.564;23.280;2023-07-31T03:21:21;98062.19;;;21.90;87.51
6194;BME280;3130;41.564;23.280;2023-07-31T03:23:49;98118.50;;;22.42;83.51
6194;BME280;3130;41.564;23.280;2023-07-31T03:26:17;98244.81;;;23.41;78.79
6194;BME280;3130;41.564;23.280;2023-07-31T03:28:45;98244.72;;;23.76;76.04
6194;BME280;3130;41.564;23.280;2023-07-31T03:31:12;98098.88;;;22.94;74.97
6194;BME280;3130;41.564;23.280;2023-07-31T03:33:40;98254.69;;;24.14;73.87
6194;BME280;3130;41.564;23.280;2023-07-31T03:36:09;98268.44;;;24.23;72.57
6194;BME280;3130;41.564;23.280;2023-07-31T03:38:36;98210.03;;;23.95;72.37
6194;BME280;3130;41.564;23.280;2023-07-31T03:41:04;98218.56;;;24.10;71.89
6194;BME280;3130;41.564;23.280;2023-07-31T03:43:33;98260.50;;;24.44;71.56
6194;BME280;3130;41.564;23.280;2023-07-31T03:46:00;98252.00;;;24.42;71.69
6194;BME280;3130;41.564;23.280;2023-07-31T03:48:28;98081.72;;;23.34;71.95
6194;BME280;3130;41.564;23.280;2023-07-31T03:50:56;98144.03;;;23.78;71.61
6194;BME280;3130;41.564;23.280;2023-07-31T03:53:23;98260.13;;;24.47;71.44
6194;BME280;3130;41.564;23.280;2023-07-31T03:55:50;98155.19;;;23.93;71.25
6194;BME280;3130;41.564;23.280;2023-07-31T03:58:18;98090.59;;;23.39;71.46
6194;BME280;3130;41.564;23.280;2023-07-31T04:00:47;98213.56;;;24.15;71.54
6194;BME280;3130;41.564;23.280;2023-07-31T04:03:14;98267.28;;;24.32;71.96
6194;BME280;3130;41.564;23.280;2023-07-31T04:05:42;98208.91;;;23.83;72.49
6194;BME280;3130;41.564;23.280;2023-07-31T04:08:10;98272.47;;;24.25;72.59
6194;BME280;3130;41.564;23.280;2023-07-31T04:10:41;98217.09;;;24.01;72.89
6194;BME280;3130;41.564;23.280;2023-07-31T04:13:08;98162.72;;;23.48;73.02
6194;BME280;3130;41.564;23.280;2023-07-31T04:15:36;98108.53;;;23.15;73.11
6194;BME280;3130;41.564;23.280;2023-07-31T04:18:05;98178.44;;;23.48;73.77
6194;BME280;3130;41.564;23.280;2023-07-31T04:20:33;98196.22;;;23.52;74.20
6194;BME280;3130;41.564;23.280;2023-07-31T04:23:00;98122.03;;;23.18;73.96
6194;BME280;3130;41.564;23.280;2023-07-31T04:25:27;98163.19;;;23.51;73.52
6194;BME280;3130;41.564;23.280;2023-07-31T04:27:54;98275.50;;;24.22;73.67
6194;BME280;3130;41.564;23.280;2023-07-31T04:30:21;98286.50;;;24.11;73.60
6194;BME280;3130;41.564;23.280;2023-07-31T04:32:48;98100.75;;;23.00;73.75
6194;BME280;3130;41.564;23.280;2023-07-31T04:35:17;98141.78;;;23.21;74.36
6194;BME280;3130;41.564;23.280;2023-07-31T04:37:44;98251.59;;;24.04;73.90
6194;BME280;3130;41.564;23.280;2023-07-31T04:40:14;98286.66;;;24.31;73.52
6194;BME280;3130;41.564;23.280;2023-07-31T04:42:42;98297.09;;;24.24;73.91
6194;BME280;3130;41.564;23.280;2023-07-31T04:45:09;98290.88;;;24.32;73.51
6194;BME280;3130;41.564;23.280;2023-07-31T04:47:37;98214.66;;;23.72;73.75
6194;BME280;3130;41.564;23.280;2023-07-31T04:50:05;98304.16;;;24.30;73.69
6194;BME280;3130;41.564;23.280;2023-07-31T04:52:34;98287.13;;;24.13;74.08
6194;BME280;3130;41.564;23.280;2023-07-31T04:55:01;98184.25;;;23.43;74.22
6194;BME280;3130;41.564;23.280;2023-07-31T04:57:28;98276.72;;;23.99;74.23
6194;BME280;3130;41.564;23.280;2023-07-31T04:59:55;98238.94;;;23.80;74.03
6194;BME280;3130;41.564;23.280;2023-07-31T05:02:22;98165.50;;;23.40;74.04
6194;BME280;3130;41.564;23.280;2023-07-31T05:04:51;98303.66;;;24.41;73.37
6194;BME280;3130;41.564;23.280;2023-07-31T05:07:18;98128.28;;;23.17;73.07
6194;BME280;3130;41.564;23.280;2023-07-31T05:09:47;98297.31;;;24.29;73.30
6194;BME280;3130;41.564;23.280;2023-07-31T05:12:15;98307.34;;;24.47;73.12
6194;BME280;3130;41.564;23.280;2023-07-31T05:14:42;98138.41;;;23.54;72.74
6194;BME280;3130;41.564;23.280;2023-07-31T05:17:10;98241.56;;;24.14;72.46
6194;BME280;3130;41.564;23.280;2023-07-31T05:19:37;98153.38;;;23.60;71.86
6194;BME280;3130;41.564;23.280;2023-07-31T05:22:08;98320.34;;;24.67;71.42
6194;BME280;3130;41.564;23.280;2023-07-31T05:24:36;98255.22;;;24.37;71.17
6194;BME280;3130;41.564;23.280;2023-07-31T05:27:05;98323.03;;;24.80;71.25
6194;BME280;3130;41.564;23.280;2023-07-31T05:29:32;98316.44;;;24.97;70.56
6194;BME280;3130;41.564;23.280;2023-07-31T05:32:00;98170.81;;;24.14;70.25
6194;BME280;3130;41.564;23.280;2023-07-31T05:34:27;98315.44;;;24.98;70.16
6194;BME280;3130;41.564;23.280;2023-07-31T05:36:54;98307.56;;;24.98;69.93
6194;BME280;3130;41.564;23.280;2023-07-31T05:39:22;98160.97;;;24.16;69.14
6194;BME280;3130;41.564;23.280;2023-07-31T05:41:50;98149.84;;;24.14;69.44
6194;BME280;3130;41.564;23.280;2023-07-31T05:44:19;98161.47;;;24.39;67.94
6194;BME280;3130;41.564;23.280;2023-07-31T05:46:46;98315.78;;;25.42;67.87
6194;BME280;3130;41.564;23.280;2023-07-31T05:49:14;98286.28;;;25.34;67.37
6194;BME280;3130;41.564;23.280;2023-07-31T05:51:42;98225.22;;;25.06;65.88
6194;BME280;3130;41.564;23.280;2023-07-31T05:54:10;98173.13;;;24.77;65.25
6194;BME280;3130;41.564;23.280;2023-07-31T05:56:37;98233.78;;;25.27;65.25
6194;BME280;3130;41.564;23.280;2023-07-31T05:59:05;98333.06;;;25.96;65.07
6194;BME280;3130;41.564;23.280;2023-07-31T06:01:33;98224.09;;;25.34;64.92
6194;BME280;3130;41.564;23.280;2023-07-31T06:04:01;98324.94;;;26.11;64.11
6194;BME280;3130;41.564;23.280;2023-07-31T06:06:29;98229.56;;;25.52;63.50
6194;BME280;3130;41.564;23.280;2023-07-31T06:08:57;98185.50;;;25.35;62.69
6194;BME280;3130;41.564;23.280;2023-07-31T06:11:24;98335.44;;;26.37;62.02
6194;BME280;3130;41.564;23.280;2023-07-31T06:13:52;98324.31;;;26.48;61.95
6194;BME280;3130;41.564;23.280;2023-07-31T06:16:19;98318.84;;;26.62;60.86
6194;BME280;3130;41.564;23.280;2023-07-31T06:18:48;98323.31;;;26.62;61.32
6194;BME280;3130;41.564;23.280;2023-07-31T06:21:15;98317.78;;;26.69;59.93
6194;BME280;3130;41.564;23.280;2023-07-31T06:23:43;98320.81;;;26.73;59.74
6194;BME280;3130;41.564;23.280;2023-07-31T06:26:10;98329.13;;;26.76;59.65
6194;BME280;3130;41.564;23.280;2023-07-31T06:28:37;98302.00;;;26.69;58.96
6194;BME280;3130;41.564;23.280;2023-07-31T06:31:04;98295.19;;;26.49;60.19
6194;BME280;3130;41.564;23.280;2023-07-31T06:33:32;98330.69;;;26.90;59.11
6194;BME280;3130;41.564;23.280;2023-07-31T06:36:01;98266.44;;;26.61;59.07
6194;BME280;3130;41.564;23.280;2023-07-31T06:38:29;98309.00;;;26.95;58.75
6194;BME280;3130;41.564;23.280;2023-07-31T06:40:57;98156.97;;;26.03;58.93
6194;BME280;3130;41.564;23.280;2023-07-31T06:43:25;98315.88;;;26.96;59.21
6194;BME280;3130;41.564;23.280;2023-07-31T06:45:53;98318.88;;;27.06;59.31
6194;BME280;3130;41.564;23.280;2023-07-31T06:48:20;98271.56;;;26.86;58.88
6194;BME280;3130;41.564;23.280;2023-07-31T06:50:47;98257.47;;;26.74;58.61
6194;BME280;3130;41.564;23.280;2023-07-31T06:53:16;98205.34;;;26.52;57.99
6194;BME280;3130;41.564;23.280;2023-07-31T06:55:44;98175.97;;;26.55;58.11
6194;BME280;3130;41.564;23.280;2023-07-31T06:58:11;98276.91;;;27.17;56.63
6194;BME280;3130;41.564;23.280;2023-07-31T07:00:38;98268.66;;;27.38;55.91
6194;BME280;3130;41.564;23.280;2023-07-31T07:03:06;98314.19;;;27.52;55.44
6194;BME280;3130;41.564;23.280;2023-07-31T07:05:34;98263.16;;;27.46;54.44
6194;BME280;3130;41.564;23.280;2023-07-31T07:08:02;98182.69;;;27.19;54.64
6194;BME280;3130;41.564;23.280;2023-07-31T07:10:30;98308.13;;;28.06;54.33
6194;BME280;3130;41.564;23.280;2023-07-31T07:12:58;98219.31;;;27.27;53.90
6194;BME280;3130;41.564;23.280;2023-07-31T07:15:27;98272.91;;;27.70;54.00
6194;BME280;3130;41.564;23.280;2023-07-31T07:17:56;98324.53;;;28.33;52.94
6194;BME280;3130;41.564;23.280;2023-07-31T07:20:24;98341.19;;;28.51;52.83
6194;BME280;3130;41.564;23.280;2023-07-31T07:22:51;98318.00;;;28.35;51.69
6194;BME280;3130;41.564;23.280;2023-07-31T07:25:19;98189.28;;;27.83;50.78
6194;BME280;3130;41.564;23.280;2023-07-31T07:27:47;98317.81;;;28.37;50.86
6194;BME280;3130;41.564;23.280;2023-07-31T07:30:15;98282.03;;;28.16;49.44
6194;BME280;3130;41.564;23.280;2023-07-31T07:32:43;98321.69;;;28.52;49.72
6194;BME280;3130;41.564;23.280;2023-07-31T07:35:10;98320.53;;;28.84;49.43
6194;BME280;3130;41.564;23.280;2023-07-31T07:37:38;98319.78;;;29.13;48.54
6194;BME280;3130;41.564;23.280;2023-07-31T07:40:06;98287.28;;;28.76;48.57
6194;BME280;3130;41.564;23.280;2023-07-31T07:42:33;98328.41;;;29.20;47.39
6194;BME280;3130;41.564;23.280;2023-07-31T07:45:03;98322.94;;;29.21;47.13
6194;BME280;3130;41.564;23.280;2023-07-31T07:47:31;98269.19;;;28.80;46.78
6194;BME280;3130;41.564;23.280;2023-07-31T07:49:58;98312.22;;;29.16;47.01
6194;BME280;3130;41.564;23.280;2023-07-31T07:52:25;98311.50;;;29.39;47.07
6194;BME280;3130;41.564;23.280;2023-07-31T07:54:52;98318.25;;;29.64;46.14
6194;BME280;3130;41.564;23.280;2023-07-31T07:57:20;98258.50;;;29.52;44.61
6194;BME280;3130;41.564;23.280;2023-07-31T07:59:47;98243.91;;;29.31;44.26
6194;BME280;3130;41.564;23.280;2023-07-31T08:02:17;98229.84;;;29.08;44.54
6194;BME280;3130;41.564;23.280;2023-07-31T08:04:51;98156.69;;;29.08;43.53
6194;BME280;3130;41.564;23.280;2023-07-31T08:07:18;98318.94;;;30.46;42.65
6194;BME280;3130;41.564;23.280;2023-07-31T08:09:45;98218.47;;;30.40;40.79
6194;BME280;3130;41.564;23.280;2023-07-31T08:12:12;98319.38;;;31.28;39.61
6194;BME280;3130;41.564;23.280;2023-07-31T08:14:40;98311.59;;;31.38;38.17
6194;BME280;3130;41.564;23.280;2023-07-31T08:17:07;98299.59;;;31.64;37.42
6194;BME280;3130;41.564;23.280;2023-07-31T08:19:36;98311.53;;;31.78;36.54
6194;BME280;3130;41.564;23.280;2023-07-31T08:22:04;98282.59;;;31.60;37.30
6194;BME280;3130;41.564;23.280;2023-07-31T08:24:31;98238.78;;;31.01;37.49
6194;BME280;3130;41.564;23.280;2023-07-31T08:26:59;98315.31;;;30.86;38.93
6194;BME280;3130;41.564;23.280;2023-07-31T08:29:26;98173.31;;;29.95;39.07
6194;BME280;3130;41.564;23.280;2023-07-31T08:31:53;98319.28;;;30.61;39.27
6194;BME280;3130;41.564;23.280;2023-07-31T08:34:20;98318.28;;;30.28;40.47
6194;BME280;3130;41.564;23.280;2023-07-31T08:36:50;98232.06;;;30.32;40.57
6194;BME280;3130;41.564;23.280;2023-07-31T08:39:18;98286.53;;;30.90;40.80
6194;BME280;3130;41.564;23.280;2023-07-31T08:41:45;98192.59;;;30.30;41.10
6194;BME280;3130;41.564;23.280;2023-07-31T08:44:14;98306.06;;;31.12;40.45
6194;BME280;3130;41.564;23.280;2023-07-31T08:46:42;98279.56;;;30.73;40.21
6194;BME280;3130;41.564;23.280;2023-07-31T08:49:10;98285.75;;;30.78;39.29
6194;BME280;3130;41.564;23.280;2023-07-31T08:51:38;98299.25;;;30.65;39.31
6194;BME280;3130;41.564;23.280;2023-07-31T08:54:07;98303.28;;;30.68;39.60
6194;BME280;3130;41.564;23.280;2023-07-31T08:56:34;98294.78;;;30.66;39.32
6194;BME280;3130;41.564;23.280;2023-07-31T08:59:04;98284.41;;;30.41;38.50
6194;BME280;3130;41.564;23.280;2023-07-31T09:01:35;98153.22;;;29.60;38.79
6194;BME280;3130;41.564;23.280;2023-07-31T09:04:05;98198.75;;;30.08;39.16
6194;BME280;3130;41.564;23.280;2023-07-31T09:06:33;98168.03;;;30.07;38.98
6194;BME280;3130;41.564;23.280;2023-07-31T09:09:01;98211.13;;;30.30;38.87
6194;BME280;3130;41.564;23.280;2023-07-31T09:11:30;98284.38;;;30.76;39.27
6194;BME280;3130;41.564;23.280;2023-07-31T09:13:57;98268.88;;;30.95;38.59
6194;BME280;3130;41.564;23.280;2023-07-31T09:16:28;98208.38;;;30.76;37.79
6194;BME280;3130;41.564;23.280;2023-07-31T09:18:57;98281.53;;;31.33;37.80
6194;BME280;3130;41.564;23.280;2023-07-31T09:21:27;98271.59;;;31.40;35.91
6194;BME280;3130;41.564;23.280;2023-07-31T09:23:54;98267.59;;;31.54;35.59
6194;BME280;3130;41.564;23.280;2023-07-31T09:26:34;98271.41;;;31.74;34.97
6194;BME280;3130;41.564;23.280;2023-07-31T09:29:04;98193.69;;;31.41;34.99
6194;BME280;3130;41.564;23.280;2023-07-31T09:31:42;98109.97;;;31.12;34.75
6194;BME280;3130;41.564;23.280;2023-07-31T09:34:10;98198.34;;;31.83;34.50
6194;BME280;3130;41.564;23.280;2023-07-31T09:36:42;98255.16;;;32.03;33.77
6194;BME280;3130;41.564;23.280;2023-07-31T09:39:11;98204.13;;;31.47;34.84
6194;BME280;3130;41.564;23.280;2023-07-31T09:41:43;98248.00;;;32.04;34.36
6194;BME280;3130;41.564;23.280;2023-07-31T09:44:11;98252.72;;;32.18;33.42
6194;BME280;3130;41.564;23.280;2023-07-31T09:46:38;98202.66;;;31.89;33.48
6194;BME280;3130;41.564;23.280;2023-07-31T09:49:07;98250.03;;;32.13;34.34
6194;BME280;3130;41.564;23.280;2023-07-31T09:51:36;98240.91;;;32.09;35.08
6194;BME280;3130;41.564;23.280;2023-07-31T09:54:12;98204.03;;;31.42;34.94
6194;BME280;3130;41.564;23.280;2023-07-31T09:56:46;98151.97;;;31.36;33.71
6194;BME280;3130;41.564;23.280;2023-07-31T09:59:15;98227.88;;;32.08;34.08
6194;BME280;3130;41.564;23.280;2023-07-31T10:01:45;98095.81;;;31.39;33.89
6194;BME280;3130;41.564;23.280;2023-07-31T10:04:15;98189.25;;;31.79;34.22
6194;BME280;3130;41.564;23.280;2023-07-31T10:06:47;98227.31;;;32.22;33.99
6194;BME280;3130;41.564;23.280;2023-07-31T10:09:20;98204.50;;;32.05;33.16
6194;BME280;3130;41.564;23.280;2023-07-31T10:11:55;98210.75;;;32.15;33.75
6194;BME280;3130;41.564;23.280;2023-07-31T10:14:26;98205.97;;;32.34;33.80
6194;BME280;3130;41.564;23.280;2023-07-31T10:16:55;98152.69;;;32.02;33.68
6194;BME280;3130;41.564;23.280;2023-07-31T10:19:23;98068.94;;;31.69;32.19
6194;BME280;3130;41.564;23.280;2023-07-31T10:21:52;98177.00;;;32.54;32.55
6194;BME280;3130;41.564;23.280;2023-07-31T10:24:22;98087.66;;;31.79;32.44
6194;BME280;3130;41.564;23.280;2023-07-31T10:26:53;98070.13;;;31.99;31.51
6194;BME280;3130;41.564;23.280;2023-07-31T10:29:22;98216.41;;;32.40;31.13
6194;BME280;3130;41.564;23.280;2023-07-31T10:31:51;98211.53;;;32.32;31.66
6194;BME280;3130;41.564;23.280;2023-07-31T10:34:19;98178.78;;;31.89;32.07
6194;BME280;3130;41.564;23.280;2023-07-31T10:36:47;98156.66;;;32.00;32.09
6194;BME280;3130;41.564;23.280;2023-07-31T10:39:35;98202.31;;;32.40;32.49
6194;BME280;3130;41.564;23.280;2023-07-31T10:42:14;98207.19;;;32.69;33.26
6194;BME280;3130;41.564;23.280;2023-07-31T10:44:46;98187.00;;;32.68;32.80
6194;BME280;3130;41.564;23.280;2023-07-31T10:47:14;98192.63;;;32.50;33.45
6194;BME280;3130;41.564;23.280;2023-07-31T10:49:45;98076.34;;;31.67;33.47
6194;BME280;3130;41.564;23.280;2023-07-31T10:52:13;98113.00;;;31.91;32.80
6194;BME280;3130;41.564;23.280;2023-07-31T10:54:40;98198.63;;;32.62;32.13
6194;BME280;3130;41.564;23.280;2023-07-31T10:57:20;98184.72;;;32.77;31.89
6194;BME280;3130;41.564;23.280;2023-07-31T11:00:30;98143.72;;;32.46;30.80
6194;BME280;3130;41.564;23.280;2023-07-31T11:03:12;98047.44;;;31.65;31.15
6194;BME280;3130;41.564;23.280;2023-07-31T11:05:47;98102.34;;;32.07;31.99
6194;BME280;3130;41.564;23.280;2023-07-31T11:08:16;98174.47;;;32.42;32.85
6194;BME280;3130;41.564;23.280;2023-07-31T11:10:46;98181.09;;;32.02;33.11
6194;BME280;3130;41.564;23.280;2023-07-31T11:13:15;98172.13;;;31.54;33.30
6194;BME280;3130;41.564;23.280;2023-07-31T11:15:42;98137.19;;;31.57;33.39
6194;BME280;3130;41.564;23.280;2023-07-31T11:18:09;98169.66;;;32.18;32.88
6194;BME280;3130;41.564;23.280;2023-07-31T11:20:38;98161.63;;;32.56;31.95
6194;BME280;3130;41.564;23.280;2023-07-31T11:23:08;98154.22;;;32.58;30.99
6194;BME280;3130;41.564;23.280;2023-07-31T11:25:36;98164.41;;;32.66;31.37
6194;BME280;3130;41.564;23.280;2023-07-31T11:28:07;98167.06;;;32.66;31.08
6194;BME280;3130;41.564;23.280;2023-07-31T11:30:38;98093.28;;;32.51;31.17
6194;BME280;3130;41.564;23.280;2023-07-31T11:33:07;98088.84;;;32.57;30.71
6194;BME280;3130;41.564;23.280;2023-07-31T11:35:36;98127.53;;;32.48;30.88
6194;BME280;3130;41.564;23.280;2023-07-31T11:38:03;98128.38;;;32.53;31.67
6194;BME280;3130;41.564;23.280;2023-07-31T11:40:31;98040.84;;;32.10;31.69
6194;BME280;3130;41.564;23.280;2023-07-31T11:43:04;98030.78;;;32.12;31.43
6194;BME280;3130;41.564;23.280;2023-07-31T11:45:31;98159.75;;;32.78;29.89
6194;BME280;3130;41.564;23.280;2023-07-31T11:48:00;98071.88;;;32.31;30.25
6194;BME280;3130;41.564;23.280;2023-07-31T11:50:28;98114.78;;;32.71;30.80
6194;BME280;3130;41.564;23.280;2023-07-31T11:53:03;98149.06;;;32.99;30.64
6194;BME280;3130;41.564;23.280;2023-07-31T11:55:32;98039.13;;;32.52;30.31
6194;BME280;3130;41.564;23.280;2023-07-31T11:58:00;98141.09;;;33.30;30.88
6194;BME280;3130;41.564;23.280;2023-07-31T12:00:28;98146.50;;;33.09;30.26
6194;BME280;3130;41.564;23.280;2023-07-31T12:02:55;98096.66;;;32.95;30.63
6194;BME280;3130;41.564;23.280;2023-07-31T12:05:24;98009.72;;;32.59;30.02
6194;BME280;3130;41.564;23.280;2023-07-31T12:07:54;98140.53;;;32.97;30.52
6194;BME280;3130;41.564;23.280;2023-07-31T12:13:09;98097.91;;;32.87;30.10
6194;BME280;3130;41.564;23.280;2023-07-31T12:15:40;98058.19;;;32.71;30.31
6194;BME280;3130;41.564;23.280;2023-07-31T12:18:10;98100.88;;;32.38;30.90
6194;BME280;3130;41.564;23.280;2023-07-31T12:20:43;98089.59;;;32.52;30.55
6194;BME280;3130;41.564;23.280;2023-07-31T12:23:15;98124.53;;;32.92;29.88
6194;BME280;3130;41.564;23.280;2023-07-31T12:25:43;98061.56;;;32.61;29.97
6194;BME280;3130;41.564;23.280;2023-07-31T12:28:11;97955.41;;;32.13;30.41
6194;BME280;3130;41.564;23.280;2023-07-31T12:30:39;98021.09;;;32.54;29.87
6194;BME280;3130;41.564;23.280;2023-07-31T12:33:12;98106.06;;;33.07;29.68
6194;BME280;3130;41.564;23.280;2023-07-31T12:35:46;98048.16;;;32.78;30.19
6194;BME280;3130;41.564;23.280;2023-07-31T12:38:14;98009.00;;;32.37;29.29
6194;BME280;3130;41.564;23.280;2023-07-31T12:40:42;98050.09;;;32.87;29.64
6194;BME280;3130;41.564;23.280;2023-07-31T12:43:09;98097.81;;;33.35;29.28
6194;BME280;3130;41.564;23.280;2023-07-31T12:45:36;98104.69;;;33.31;29.28
6194;BME280;3130;41.564;23.280;2023-07-31T12:48:05;98101.53;;;33.34;29.24
6194;BME280;3130;41.564;23.280;2023-07-31T12:50:37;97955.31;;;32.61;29.14
6194;BME280;3130;41.564;23.280;2023-07-31T12:53:06;97967.59;;;32.67;28.59
6194;BME280;3130;41.564;23.280;2023-07-31T12:55:33;98096.81;;;33.09;28.88
6194;BME280;3130;41.564;23.280;2023-07-31T12:58:02;98059.16;;;32.91;28.56
6194;BME280;3130;41.564;23.280;2023-07-31T13:00:30;98096.78;;;33.41;29.02
6194;BME280;3130;41.564;23.280;2023-07-31T13:02:57;98081.88;;;33.40;28.40
6194;BME280;3130;41.564;23.280;2023-07-31T13:05:25;98070.44;;;33.39;28.64
6194;BME280;3130;41.564;23.280;2023-07-31T13:07:52;98040.97;;;33.09;28.55
6194;BME280;3130;41.564;23.280;2023-07-31T13:10:21;98095.34;;;33.23;28.78
6194;BME280;3130;41.564;23.280;2023-07-31T13:12:48;98084.97;;;33.27;28.29
6194;BME280;3130;41.564;23.280;2023-07-31T13:15:16;98005.56;;;32.68;29.05
6194;BME280;3130;41.564;23.280;2023-07-31T13:17:45;98089.94;;;33.13;28.60
6194;BME280;3130;41.564;23.280;2023-07-31T13:20:15;98087.41;;;33.28;27.71